Impacts TAF Board
For situational awareness. Not to be used for flight planning purposes.
IDs:

KMCO - Orlando Intl, FL, US

Issued at 1722 UTC 20 Jan 2019
Updated at 1749 UTC 20 Jan 2019
Potential Impact None Slight Moderate High
Time1716Z 20/18Z 20/19Z 20/20Z 20/21Z 20/22Z 20/23Z 21/00Z 21/01Z 21/02Z 21/03Z 21/04Z 21/05Z 21/06Z>>
Type OBS PRVL PRVL PRVL PRVL PRVL PRVL PRVL PRVL PRVL PRVL PRVL PRVL PRVL
VIS 10 >6 >6 >6 >6 >6 >6 >6 >6 >6 >6 >6 >6 >6
CIG 37 40 40 40 40 40 -- -- -- -- -- -- -- --
Cover OVC BKN BKN BKN BKN BKN FEW FEW FEW FEW FEW FEW FEW SKC
FltCat VFR VFR VFR VFR VFR VFR VFR VFR VFR VFR VFR VFR VFR VFR
WX -- -- -- -- -- -- -- -- -- -- -- -- -- --
WDir 280 270 270 270 270 270 290 290 290 290 290 290 290 320
WSpd 21 20 20 20 20 20 11 11 11 11 11 11 11 7
WGst 27 30 30 30 30 30 -- -- -- -- -- -- -- --
Raw TAF
KMCO 201722Z 2018/2124 27020G30KT P6SM BKN040
  FM202300 29011KT P6SM FEW040
  FM210600 32007KT P6SM SKC
  FM211400 36009KT P6SM SKC
  FM211800 02010KT P6SM SKC


Raw METAR
KMCO 201716Z 28021G27KT 10SM OVC037 17/08 A2991 RMK AO2 PK WND 28030/1705 T01670083
KMCO 201653Z 25021G32KT 10SM BKN039 18/09 A2991 RMK AO2 PK WND 28032/1649 SLP125 T01830089
KMCO 201553Z 26016G23KT 10SM FEW035 SCT042 SCT250 18/11 A2990 RMK AO2 SLP122 T01830106
KMCO 201453Z 26018G25KT 10SM FEW030 BKN040 18/11 A2988 RMK AO2 PK WND 29026/1431 SLP116 T01780106 51022
KMCO 201431Z 27018G26KT 10SM FEW024 FEW029 17/11 A2987 RMK AO2 PK WND 29026/1431 T01720111

METAR Board
Radar Display
Forecast Discussion
For situational awareness. Not to be used for flight planning purposes.